sensor_id;sensor_type;location;lat;lon;timestamp;temperature;humidity
981;DHT22;479;53.514;9.994;2023-07-02T00:01:47;15.70;99.90
981;DHT22;479;53.514;9.994;2023-07-02T00:04:15;15.70;99.90
981;DHT22;479;53.514;9.994;2023-07-02T00:06:45;15.60;99.90
981;DHT22;479;53.514;9.994;2023-07-02T00:09:13;15.60;99.90
981;DHT22;479;53.514;9.994;2023-07-02T00:11:42;15.50;99.90
981;DHT22;479;53.514;9.994;2023-07-02T00:14:10;15.50;99.90
981;DHT22;479;53.514;9.994;2023-07-02T00:16:39;15.50;99.90
981;DHT22;479;53.514;9.994;2023-07-02T00:19:06;15.50;99.90
981;DHT22;479;53.514;9.994;2023-07-02T00:21:33;15.40;99.90
981;DHT22;479;53.514;9.994;2023-07-02T00:24:03;15.30;99.90
981;DHT22;479;53.514;9.994;2023-07-02T00:26:35;15.40;99.90
981;DHT22;479;53.514;9.994;2023-07-02T00:29:08;15.30;99.90
981;DHT22;479;53.514;9.994;2023-07-02T00:31:35;15.30;99.90
981;DHT22;479;53.514;9.994;2023-07-02T00:34:02;15.30;99.90
981;DHT22;479;53.514;9.994;2023-07-02T00:36:30;15.40;99.90
981;DHT22;479;53.514;9.994;2023-07-02T00:38:58;15.40;99.90
981;DHT22;479;53.514;9.994;2023-07-02T00:41:25;15.40;99.90
981;DHT22;479;53.514;9.994;2023-07-02T00:43:52;15.50;99.90
981;DHT22;479;53.514;9.994;2023-07-02T00:46:23;15.50;99.90
981;DHT22;479;53.514;9.994;2023-07-02T00:48:52;15.50;99.90
981;DHT22;479;53.514;9.994;2023-07-02T00:51:21;15.50;99.90
981;DHT22;479;53.514;9.994;2023-07-02T00:53:49;15.50;99.90
981;DHT22;479;53.514;9.994;2023-07-02T00:56:16;15.50;99.90
981;DHT22;479;53.514;9.994;2023-07-02T00:58:45;15.60;99.90
981;DHT22;479;53.514;9.994;2023-07-02T01:01:15;15.60;99.90
981;DHT22;479;53.514;9.994;2023-07-02T01:03:56;15.60;99.90
981;DHT22;479;53.514;9.994;2023-07-02T01:06:26;15.60;99.90
981;DHT22;479;53.514;9.994;2023-07-02T01:08:57;15.60;99.90
981;DHT22;479;53.514;9.994;2023-07-02T01:11:27;15.70;99.90
981;DHT22;479;53.514;9.994;2023-07-02T01:14:01;15.70;99.90
981;DHT22;479;53.514;9.994;2023-07-02T01:16:30;15.70;99.90
981;DHT22;479;53.514;9.994;2023-07-02T01:19:02;15.60;99.90
981;DHT22;479;53.514;9.994;2023-07-02T01:21:33;15.60;99.90
981;DHT22;479;53.514;9.994;2023-07-02T01:24:00;15.60;99.90
981;DHT22;479;53.514;9.994;2023-07-02T01:26:29;15.60;99.90
981;DHT22;479;53.514;9.994;2023-07-02T01:29:00;15.60;99.90
981;DHT22;479;53.514;9.994;2023-07-02T01:31:27;15.60;99.90
981;DHT22;479;53.514;9.994;2023-07-02T01:33:54;15.60;99.90
981;DHT22;479;53.514;9.994;2023-07-02T01:36:21;15.60;99.90
981;DHT22;479;53.514;9.994;2023-07-02T01:38:49;15.60;99.90
981;DHT22;479;53.514;9.994;2023-07-02T01:41:16;15.60;99.90
981;DHT22;479;53.514;9.994;2023-07-02T01:43:42;15.60;99.90
981;DHT22;479;53.514;9.994;2023-07-02T01:46:09;15.60;99.90
981;DHT22;479;53.514;9.994;2023-07-02T01:48:36;15.60;99.90
981;DHT22;479;53.514;9.994;2023-07-02T01:51:04;15.60;99.90
981;DHT22;479;53.514;9.994;2023-07-02T01:53:30;15.60;99.90
981;DHT22;479;53.514;9.994;2023-07-02T01:55:59;15.70;99.90
981;DHT22;479;53.514;9.994;2023-07-02T01:58:26;15.60;99.90
981;DHT22;479;53.514;9.994;2023-07-02T02:00:53;15.60;99.90
981;DHT22;479;53.514;9.994;2023-07-02T02:03:21;15.50;99.90
981;DHT22;479;53.514;9.994;2023-07-02T02:05:48;15.50;99.90
981;DHT22;479;53.514;9.994;2023-07-02T02:08:16;15.50;99.90
981;DHT22;479;53.514;9.994;2023-07-02T02:10:43;15.50;99.90
981;DHT22;479;53.514;9.994;2023-07-02T02:13:12;15.50;99.90
981;DHT22;479;53.514;9.994;2023-07-02T02:15:39;15.50;99.90
981;DHT22;479;53.514;9.994;2023-07-02T02:18:07;15.50;99.90
981;DHT22;479;53.514;9.994;2023-07-02T02:20:35;15.50;99.90
981;DHT22;479;53.514;9.994;2023-07-02T02:23:02;15.50;99.90
981;DHT22;479;53.514;9.994;2023-07-02T02:25:31;15.50;99.90
981;DHT22;479;53.514;9.994;2023-07-02T02:27:57;15.50;99.90
981;DHT22;479;53.514;9.994;2023-07-02T02:30:26;15.50;99.90
981;DHT22;479;53.514;9.994;2023-07-02T02:32:56;15.60;99.90
981;DHT22;479;53.514;9.994;2023-07-02T02:35:23;15.60;99.90
981;DHT22;479;53.514;9.994;2023-07-02T02:37:51;15.60;99.90
981;DHT22;479;53.514;9.994;2023-07-02T02:40:17;15.50;99.90
981;DHT22;479;53.514;9.994;2023-07-02T02:42:44;15.60;99.90
981;DHT22;479;53.514;9.994;2023-07-02T02:45:12;15.60;99.90
981;DHT22;479;53.514;9.994;2023-07-02T02:47:40;15.60;99.90
981;DHT22;479;53.514;9.994;2023-07-02T02:50:07;15.60;99.90
981;DHT22;479;53.514;9.994;2023-07-02T02:52:36;15.60;99.90
981;DHT22;479;53.514;9.994;2023-07-02T02:55:04;15.60;99.90
981;DHT22;479;53.514;9.994;2023-07-02T02:57:32;15.60;99.90
981;DHT22;479;53.514;9.994;2023-07-02T02:59:59;15.60;99.90
981;DHT22;479;53.514;9.994;2023-07-02T03:02:25;15.50;99.90
981;DHT22;479;53.514;9.994;2023-07-02T03:04:54;15.50;99.90
981;DHT22;479;53.514;9.994;2023-07-02T03:07:22;15.50;99.90
981;DHT22;479;53.514;9.994;2023-07-02T03:09:49;15.50;99.90
981;DHT22;479;53.514;9.994;2023-07-02T03:12:16;15.50;99.90
981;DHT22;479;53.514;9.994;2023-07-02T03:14:43;15.50;99.90
981;DHT22;479;53.514;9.994;2023-07-02T03:17:10;15.50;99.90
981;DHT22;479;53.514;9.994;2023-07-02T03:19:37;15.40;99.90
981;DHT22;479;53.514;9.994;2023-07-02T03:22:05;15.40;99.90
981;DHT22;479;53.514;9.994;2023-07-02T03:24:32;15.40;99.90
981;DHT22;479;53.514;9.994;2023-07-02T03:26:59;15.40;99.90
981;DHT22;479;53.514;9.994;2023-07-02T03:29:26;15.40;99.90
981;DHT22;479;53.514;9.994;2023-07-02T03:31:53;15.40;99.90
981;DHT22;479;53.514;9.994;2023-07-02T03:34:20;15.40;99.90
981;DHT22;479;53.514;9.994;2023-07-02T03:36:48;15.40;99.90
981;DHT22;479;53.514;9.994;2023-07-02T03:39:16;15.40;99.90
981;DHT22;479;53.514;9.994;2023-07-02T03:41:43;15.40;99.90
981;DHT22;479;53.514;9.994;2023-07-02T03:44:10;15.40;99.90
981;DHT22;479;53.514;9.994;2023-07-02T03:46:40;15.40;99.90
981;DHT22;479;53.514;9.994;2023-07-02T03:49:10;15.40;99.90
981;DHT22;479;53.514;9.994;2023-07-02T03:51:37;15.40;99.90
981;DHT22;479;53.514;9.994;2023-07-02T03:54:04;15.40;99.90
981;DHT22;479;53.514;9.994;2023-07-02T03:56:33;15.40;99.90
981;DHT22;479;53.514;9.994;2023-07-02T03:58:59;15.40;99.90
981;DHT22;479;53.514;9.994;2023-07-02T04:01:26;15.40;99.90
981;DHT22;479;53.514;9.994;2023-07-02T04:03:55;15.40;99.90
981;DHT22;479;53.514;9.994;2023-07-02T04:06:22;15.50;99.90
981;DHT22;479;53.514;9.994;2023-07-02T04:08:49;15.50;99.90
981;DHT22;479;53.514;9.994;2023-07-02T04:11:16;15.50;99.90
981;DHT22;479;53.514;9.994;2023-07-02T04:13:44;15.50;99.90
981;DHT22;479;53.514;9.994;2023-07-02T04:16:11;15.50;99.90
981;DHT22;479;53.514;9.994;2023-07-02T04:18:38;15.50;99.90
981;DHT22;479;53.514;9.994;2023-07-02T04:21:04;15.50;99.90
981;DHT22;479;53.514;9.994;2023-07-02T04:23:31;15.50;99.90
981;DHT22;479;53.514;9.994;2023-07-02T04:25:58;15.50;99.90
981;DHT22;479;53.514;9.994;2023-07-02T04:28:25;15.50;99.90
981;DHT22;479;53.514;9.994;2023-07-02T04:30:53;15.50;99.90
981;DHT22;479;53.514;9.994;2023-07-02T04:33:20;15.60;99.90
981;DHT22;479;53.514;9.994;2023-07-02T04:35:47;15.50;99.90
981;DHT22;479;53.514;9.994;2023-07-02T04:38:14;15.50;99.90
981;DHT22;479;53.514;9.994;2023-07-02T04:40:41;15.50;99.90
981;DHT22;479;53.514;9.994;2023-07-02T04:43:11;15.60;99.90
981;DHT22;479;53.514;9.994;2023-07-02T04:45:37;15.60;99.90
981;DHT22;479;53.514;9.994;2023-07-02T04:48:06;15.60;99.90
981;DHT22;479;53.514;9.994;2023-07-02T04:50:33;15.60;99.90
981;DHT22;479;53.514;9.994;2023-07-02T04:53:00;15.70;99.90
981;DHT22;479;53.514;9.994;2023-07-02T04:55:27;15.70;99.90
981;DHT22;479;53.514;9.994;2023-07-02T04:57:54;15.80;99.90
981;DHT22;479;53.514;9.994;2023-07-02T05:00:21;15.70;99.90
981;DHT22;479;53.514;9.994;2023-07-02T05:02:48;15.70;99.90
981;DHT22;479;53.514;9.994;2023-07-02T05:05:17;15.80;99.90
981;DHT22;479;53.514;9.994;2023-07-02T05:07:44;15.80;99.90
981;DHT22;479;53.514;9.994;2023-07-02T05:10:11;15.90;99.90
981;DHT22;479;53.514;9.994;2023-07-02T05:12:37;16.00;99.90
981;DHT22;479;53.514;9.994;2023-07-02T05:15:05;16.00;99.90
981;DHT22;479;53.514;9.994;2023-07-02T05:17:32;16.00;99.90
981;DHT22;479;53.514;9.994;2023-07-02T05:20:02;16.00;99.90
981;DHT22;479;53.514;9.994;2023-07-02T05:22:30;16.00;99.90
981;DHT22;479;53.514;9.994;2023-07-02T05:24:57;16.10;99.90
981;DHT22;479;53.514;9.994;2023-07-02T05:27:23;16.10;99.90
981;DHT22;479;53.514;9.994;2023-07-02T05:29:51;16.20;99.90
981;DHT22;479;53.514;9.994;2023-07-02T05:32:18;16.30;99.90
981;DHT22;479;53.514;9.994;2023-07-02T05:34:45;16.30;99.90
981;DHT22;479;53.514;9.994;2023-07-02T05:37:12;16.30;99.90
981;DHT22;479;53.514;9.994;2023-07-02T05:39:40;16.40;99.90
981;DHT22;479;53.514;9.994;2023-07-02T05:42:07;16.50;99.90
981;DHT22;479;53.514;9.994;2023-07-02T05:44:34;16.50;99.90
981;DHT22;479;53.514;9.994;2023-07-02T05:47:01;16.50;99.90
981;DHT22;479;53.514;9.994;2023-07-02T05:49:28;16.60;99.90
981;DHT22;479;53.514;9.994;2023-07-02T05:51:55;16.70;99.90
981;DHT22;479;53.514;9.994;2023-07-02T05:54:22;16.80;99.90
981;DHT22;479;53.514;9.994;2023-07-02T05:56:50;16.90;99.90
981;DHT22;479;53.514;9.994;2023-07-02T05:59:17;16.90;99.90
981;DHT22;479;53.514;9.994;2023-07-02T06:01:44;17.10;99.90
981;DHT22;479;53.514;9.994;2023-07-02T06:04:11;17.30;99.90
981;DHT22;479;53.514;9.994;2023-07-02T06:06:38;17.40;99.90
981;DHT22;479;53.514;9.994;2023-07-02T06:09:05;17.40;99.90
981;DHT22;479;53.514;9.994;2023-07-02T06:11:32;17.40;99.90
981;DHT22;479;53.514;9.994;2023-07-02T06:14:00;17.40;99.90
981;DHT22;479;53.514;9.994;2023-07-02T06:16:27;17.40;99.90
981;DHT22;479;53.514;9.994;2023-07-02T06:18:54;17.30;99.90
981;DHT22;479;53.514;9.994;2023-07-02T06:21:21;17.40;99.90
981;DHT22;479;53.514;9.994;2023-07-02T06:23:49;17.50;99.90
981;DHT22;479;53.514;9.994;2023-07-02T06:26:15;17.50;99.90
981;DHT22;479;53.514;9.994;2023-07-02T06:28:42;17.50;99.90
981;DHT22;479;53.514;9.994;2023-07-02T06:31:11;17.60;99.90
981;DHT22;479;53.514;9.994;2023-07-02T06:33:39;17.70;99.90
981;DHT22;479;53.514;9.994;2023-07-02T06:36:07;17.60;99.90
981;DHT22;479;53.514;9.994;2023-07-02T06:38:34;17.80;99.90
981;DHT22;479;53.514;9.994;2023-07-02T06:41:01;17.80;99.90
981;DHT22;479;53.514;9.994;2023-07-02T06:43:28;17.80;99.90
981;DHT22;479;53.514;9.994;2023-07-02T06:45:55;17.80;99.90
981;DHT22;479;53.514;9.994;2023-07-02T06:48:23;18.00;99.90
981;DHT22;479;53.514;9.994;2023-07-02T06:50:50;18.10;99.90
981;DHT22;479;53.514;9.994;2023-07-02T06:53:17;18.20;99.90
981;DHT22;479;53.514;9.994;2023-07-02T06:55:44;18.20;99.90
981;DHT22;479;53.514;9.994;2023-07-02T06:58:10;18.20;99.90
981;DHT22;479;53.514;9.994;2023-07-02T07:00:38;18.50;99.90
981;DHT22;479;53.514;9.994;2023-07-02T07:03:05;18.70;99.90
981;DHT22;479;53.514;9.994;2023-07-02T07:05:33;19.00;99.90
981;DHT22;479;53.514;9.994;2023-07-02T07:08:00;19.10;99.90
981;DHT22;479;53.514;9.994;2023-07-02T07:10:27;19.10;99.90
981;DHT22;479;53.514;9.994;2023-07-02T07:13:00;18.90;99.90
981;DHT22;479;53.514;9.994;2023-07-02T07:15:26;18.90;99.90
981;DHT22;479;53.514;9.994;2023-07-02T07:17:53;19.10;99.90
981;DHT22;479;53.514;9.994;2023-07-02T07:20:20;19.30;99.90
981;DHT22;479;53.514;9.994;2023-07-02T07:22:49;19.40;99.90
981;DHT22;479;53.514;9.994;2023-07-02T07:25:16;19.40;99.90
981;DHT22;479;53.514;9.994;2023-07-02T07:27:42;19.20;99.90
981;DHT22;479;53.514;9.994;2023-07-02T07:30:10;19.00;99.90
981;DHT22;479;53.514;9.994;2023-07-02T07:32:37;18.60;99.90
981;DHT22;479;53.514;9.994;2023-07-02T07:35:05;18.40;99.90
981;DHT22;479;53.514;9.994;2023-07-02T07:37:32;18.30;99.90
981;DHT22;479;53.514;9.994;2023-07-02T07:40:00;18.10;99.90
981;DHT22;479;53.514;9.994;2023-07-02T07:42:27;18.40;99.90
981;DHT22;479;53.514;9.994;2023-07-02T07:44:54;18.60;99.90
981;DHT22;479;53.514;9.994;2023-07-02T07:47:20;18.70;99.90
981;DHT22;479;53.514;9.994;2023-07-02T07:49:47;19.00;99.90
981;DHT22;479;53.514;9.994;2023-07-02T07:52:14;19.00;99.90
981;DHT22;479;53.514;9.994;2023-07-02T07:54:41;19.10;99.90
981;DHT22;479;53.514;9.994;2023-07-02T07:57:10;18.90;99.90
981;DHT22;479;53.514;9.994;2023-07-02T07:59:37;19.00;99.90
981;DHT22;479;53.514;9.994;2023-07-02T08:02:04;19.30;99.90
981;DHT22;479;53.514;9.994;2023-07-02T08:04:32;19.40;99.90
981;DHT22;479;53.514;9.994;2023-07-02T08:06:59;19.40;99.90
981;DHT22;479;53.514;9.994;2023-07-02T08:09:25;19.70;99.90
981;DHT22;479;53.514;9.994;2023-07-02T08:11:52;20.00;99.90
981;DHT22;479;53.514;9.994;2023-07-02T08:14:20;20.10;99.90
981;DHT22;479;53.514;9.994;2023-07-02T08:16:47;20.40;99.90
981;DHT22;479;53.514;9.994;2023-07-02T08:19:14;20.40;99.90
981;DHT22;479;53.514;9.994;2023-07-02T08:21:41;20.30;99.90
981;DHT22;479;53.514;9.994;2023-07-02T08:24:08;20.30;99.90
981;DHT22;479;53.514;9.994;2023-07-02T08:26:35;20.10;99.90
981;DHT22;479;53.514;9.994;2023-07-02T08:29:02;19.80;99.90
981;DHT22;479;53.514;9.994;2023-07-02T08:31:31;19.70;99.90
981;DHT22;479;53.514;9.994;2023-07-02T08:33:57;19.90;99.90
981;DHT22;479;53.514;9.994;2023-07-02T08:36:24;19.90;99.70
981;DHT22;479;53.514;9.994;2023-07-02T08:38:51;19.90;98.60
981;DHT22;479;53.514;9.994;2023-07-02T08:41:20;20.20;97.90
981;DHT22;479;53.514;9.994;2023-07-02T08:43:49;20.60;96.90
981;DHT22;479;53.514;9.994;2023-07-02T08:46:17;21.00;95.00
981;DHT22;479;53.514;9.994;2023-07-02T08:48:46;21.20;92.10
981;DHT22;479;53.514;9.994;2023-07-02T08:51:13;21.60;90.70
981;DHT22;479;53.514;9.994;2023-07-02T08:53:40;21.70;88.30
981;DHT22;479;53.514;9.994;2023-07-02T08:56:07;21.80;82.70
981;DHT22;479;53.514;9.994;2023-07-02T08:58:34;22.40;81.10
981;DHT22;479;53.514;9.994;2023-07-02T09:01:05;22.70;77.00
981;DHT22;479;53.514;9.994;2023-07-02T09:03:32;23.00;73.60
981;DHT22;479;53.514;9.994;2023-07-02T09:06:01;23.30;71.20
981;DHT22;479;53.514;9.994;2023-07-02T09:08:28;23.30;69.40
981;DHT22;479;53.514;9.994;2023-07-02T09:11:05;23.50;68.70
981;DHT22;479;53.514;9.994;2023-07-02T09:13:42;23.10;67.00
981;DHT22;479;53.514;9.994;2023-07-02T09:16:19;23.00;66.40
981;DHT22;479;53.514;9.994;2023-07-02T09:18:58;22.50;68.50
981;DHT22;479;53.514;9.994;2023-07-02T09:21:27;21.80;69.10
981;DHT22;479;53.514;9.994;2023-07-02T09:23:55;21.00;72.20
981;DHT22;479;53.514;9.994;2023-07-02T09:26:22;20.50;75.10
981;DHT22;479;53.514;9.994;2023-07-02T09:28:50;20.30;76.80
981;DHT22;479;53.514;9.994;2023-07-02T09:31:17;20.00;78.00
981;DHT22;479;53.514;9.994;2023-07-02T09:33:43;19.90;78.90
981;DHT22;479;53.514;9.994;2023-07-02T09:36:11;19.60;83.00
981;DHT22;479;53.514;9.994;2023-07-02T09:38:40;19.60;84.80
981;DHT22;479;53.514;9.994;2023-07-02T09:41:07;19.50;87.60
981;DHT22;479;53.514;9.994;2023-07-02T09:43:35;19.40;86.90
981;DHT22;479;53.514;9.994;2023-07-02T09:46:03;19.60;88.10
981;DHT22;479;53.514;9.994;2023-07-02T09:48:32;20.70;84.70
981;DHT22;479;53.514;9.994;2023-07-02T09:51:01;21.50;83.30
981;DHT22;479;53.514;9.994;2023-07-02T09:53:29;22.40;78.90
981;DHT22;479;53.514;9.994;2023-07-02T09:55:58;23.20;73.90
981;DHT22;479;53.514;9.994;2023-07-02T09:58:25;23.50;70.50
981;DHT22;479;53.514;9.994;2023-07-02T10:00:52;23.10;68.20
981;DHT22;479;53.514;9.994;2023-07-02T10:03:28;23.20;68.70
981;DHT22;479;53.514;9.994;2023-07-02T10:06:03;23.30;68.70
981;DHT22;479;53.514;9.994;2023-07-02T10:08:31;22.60;65.60
981;DHT22;479;53.514;9.994;2023-07-02T10:11:10;22.80;66.70
981;DHT22;479;53.514;9.994;2023-07-02T10:13:39;22.50;66.90
981;DHT22;479;53.514;9.994;2023-07-02T10:16:07;22.60;69.20
981;DHT22;479;53.514;9.994;2023-07-02T10:18:34;23.40;67.00
981;DHT22;479;53.514;9.994;2023-07-02T10:21:13;23.10;65.30
981;DHT22;479;53.514;9.994;2023-07-02T10:23:41;22.60;66.40
981;DHT22;479;53.514;9.994;2023-07-02T10:26:14;22.30;68.40
981;DHT22;479;53.514;9.994;2023-07-02T10:28:42;22.00;67.90
981;DHT22;479;53.514;9.994;2023-07-02T10:31:19;21.20;68.10
981;DHT22;479;53.514;9.994;2023-07-02T10:33:47;20.60;69.00
981;DHT22;479;53.514;9.994;2023-07-02T10:36:20;20.60;69.80
981;DHT22;479;53.514;9.994;2023-07-02T10:38:49;20.60;69.40
981;DHT22;479;53.514;9.994;2023-07-02T10:41:26;20.70;69.70
981;DHT22;479;53.514;9.994;2023-07-02T10:43:53;20.80;70.60
981;DHT22;479;53.514;9.994;2023-07-02T10:46:21;20.70;70.80
981;DHT22;479;53.514;9.994;2023-07-02T10:48:52;20.50;71.50
981;DHT22;479;53.514;9.994;2023-07-02T10:51:20;20.20;73.00
981;DHT22;479;53.514;9.994;2023-07-02T10:53:56;20.10;74.40
981;DHT22;479;53.514;9.994;2023-07-02T10:56:26;20.00;77.20
981;DHT22;479;53.514;9.994;2023-07-02T10:58:53;19.90;79.80
981;DHT22;479;53.514;9.994;2023-07-02T11:01:24;20.00;81.10
981;DHT22;479;53.514;9.994;2023-07-02T11:03:59;20.20;79.50
981;DHT22;479;53.514;9.994;2023-07-02T11:06:27;20.90;77.00
981;DHT22;479;53.514;9.994;2023-07-02T11:08:54;21.40;72.90
981;DHT22;479;53.514;9.994;2023-07-02T11:11:22;22.10;70.70
981;DHT22;479;53.514;9.994;2023-07-02T11:13:52;22.40;67.80
981;DHT22;479;53.514;9.994;2023-07-02T11:16:23;23.00;67.50
981;DHT22;479;53.514;9.994;2023-07-02T11:18:52;23.20;65.20
981;DHT22;479;53.514;9.994;2023-07-02T11:21:22;23.10;64.50
981;DHT22;479;53.514;9.994;2023-07-02T11:23:49;23.30;63.90
981;DHT22;479;53.514;9.994;2023-07-02T11:26:15;22.70;64.30
981;DHT22;479;53.514;9.994;2023-07-02T11:28:49;23.10;64.90
981;DHT22;479;53.514;9.994;2023-07-02T11:31:28;22.90;65.10
981;DHT22;479;53.514;9.994;2023-07-02T11:33:58;22.40;65.40
981;DHT22;479;53.514;9.994;2023-07-02T11:36:25;22.20;61.60
981;DHT22;479;53.514;9.994;2023-07-02T11:38:54;22.10;61.50
981;DHT22;479;53.514;9.994;2023-07-02T11:41:21;22.10;62.40
981;DHT22;479;53.514;9.994;2023-07-02T11:43:48;22.50;61.70
981;DHT22;479;53.514;9.994;2023-07-02T11:46:15;22.50;60.30
981;DHT22;479;53.514;9.994;2023-07-02T11:48:43;22.40;60.30
981;DHT22;479;53.514;9.994;2023-07-02T11:51:10;22.70;60.00
981;DHT22;479;53.514;9.994;2023-07-02T11:53:38;22.70;60.20
981;DHT22;479;53.514;9.994;2023-07-02T11:56:05;22.60;59.50
981;DHT22;479;53.514;9.994;2023-07-02T11:58:31;22.40;59.70
981;DHT22;479;53.514;9.994;2023-07-02T12:00:58;22.30;60.60
981;DHT22;479;53.514;9.994;2023-07-02T12:03:26;22.20;60.20
981;DHT22;479;53.514;9.994;2023-07-02T12:05:54;22.00;60.60
981;DHT22;479;53.514;9.994;2023-07-02T12:08:22;21.90;60.50
981;DHT22;479;53.514;9.994;2023-07-02T12:10:49;21.80;59.60
981;DHT22;479;53.514;9.994;2023-07-02T12:13:15;22.20;59.50
981;DHT22;479;53.514;9.994;2023-07-02T12:15:42;22.80;58.50
981;DHT22;479;53.514;9.994;2023-07-02T12:18:09;23.10;58.60
981;DHT22;479;53.514;9.994;2023-07-02T12:20:36;23.30;57.50
981;DHT22;479;53.514;9.994;2023-07-02T12:23:05;23.00;57.40
981;DHT22;479;53.514;9.994;2023-07-02T12:25:32;22.90;58.10
981;DHT22;479;53.514;9.994;2023-07-02T12:27:59;23.00;58.00
981;DHT22;479;53.514;9.994;2023-07-02T12:30:26;22.70;58.20
981;DHT22;479;53.514;9.994;2023-07-02T12:32:53;22.20;56.50
981;DHT22;479;53.514;9.994;2023-07-02T12:35:20;22.00;57.20
981;DHT22;479;53.514;9.994;2023-07-02T12:37:49;21.80;58.60
981;DHT22;479;53.514;9.994;2023-07-02T12:40:18;21.60;57.80
981;DHT22;479;53.514;9.994;2023-07-02T12:42:46;21.80;58.00
981;DHT22;479;53.514;9.994;2023-07-02T12:45:14;22.10;58.20
981;DHT22;479;53.514;9.994;2023-07-02T12:47:41;22.10;58.40
981;DHT22;479;53.514;9.994;2023-07-02T12:50:09;22.30;58.80
981;DHT22;479;53.514;9.994;2023-07-02T12:52:36;22.40;57.70
981;DHT22;479;53.514;9.994;2023-07-02T12:55:04;22.30;57.50
981;DHT22;479;53.514;9.994;2023-07-02T12:57:34;22.20;57.60
981;DHT22;479;53.514;9.994;2023-07-02T13:00:01;22.50;57.90
981;DHT22;479;53.514;9.994;2023-07-02T13:02:31;22.70;57.80
981;DHT22;479;53.514;9.994;2023-07-02T13:04:58;22.60;54.70
981;DHT22;479;53.514;9.994;2023-07-02T13:07:24;22.40;55.70
981;DHT22;479;53.514;9.994;2023-07-02T13:09:51;22.50;55.20
981;DHT22;479;53.514;9.994;2023-07-02T13:12:18;22.30;56.20
981;DHT22;479;53.514;9.994;2023-07-02T13:14:47;21.90;56.70
981;DHT22;479;53.514;9.994;2023-07-02T13:17:13;21.40;58.40
981;DHT22;479;53.514;9.994;2023-07-02T13:19:40;21.20;59.10
981;DHT22;479;53.514;9.994;2023-07-02T13:22:08;21.30;61.50
981;DHT22;479;53.514;9.994;2023-07-02T13:24:36;21.70;60.00
981;DHT22;479;53.514;9.994;2023-07-02T13:27:05;21.80;59.40
981;DHT22;479;53.514;9.994;2023-07-02T13:29:33;22.00;60.00
981;DHT22;479;53.514;9.994;2023-07-02T13:32:02;22.00;59.00
981;DHT22;479;53.514;9.994;2023-07-02T13:34:29;21.70;59.90
981;DHT22;479;53.514;9.994;2023-07-02T13:36:56;21.80;61.10
981;DHT22;479;53.514;9.994;2023-07-02T13:39:23;21.90;61.30
981;DHT22;479;53.514;9.994;2023-07-02T13:41:50;21.90;59.70
981;DHT22;479;53.514;9.994;2023-07-02T13:44:17;21.90;60.20
981;DHT22;479;53.514;9.994;2023-07-02T13:46:45;21.90;59.20
981;DHT22;479;53.514;9.994;2023-07-02T13:49:15;21.70;58.90
981;DHT22;479;53.514;9.994;2023-07-02T13:51:42;21.60;59.80
981;DHT22;479;53.514;9.994;2023-07-02T13:54:12;21.80;59.80
981;DHT22;479;53.514;9.994;2023-07-02T13:56:40;22.10;59.30
981;DHT22;479;53.514;9.994;2023-07-02T13:59:08;22.10;58.50
981;DHT22;479;53.514;9.994;2023-07-02T14:01:36;21.90;59.10
981;DHT22;479;53.514;9.994;2023-07-02T14:04:03;21.70;60.80
981;DHT22;479;53.514;9.994;2023-07-02T14:06:31;21.30;62.30
981;DHT22;479;53.514;9.994;2023-07-02T14:08:58;21.20;63.10
981;DHT22;479;53.514;9.994;2023-07-02T14:11:25;21.30;63.80
981;DHT22;479;53.514;9.994;2023-07-02T14:13:53;21.40;63.70
981;DHT22;479;53.514;9.994;2023-07-02T14:16:22;21.50;62.90
981;DHT22;479;53.514;9.994;2023-07-02T14:18:49;21.30;62.20
981;DHT22;479;53.514;9.994;2023-07-02T14:21:16;21.30;63.40
981;DHT22;479;53.514;9.994;2023-07-02T14:23:44;21.50;63.10
981;DHT22;479;53.514;9.994;2023-07-02T14:26:11;21.50;61.80
981;DHT22;479;53.514;9.994;2023-07-02T14:28:38;21.60;60.80
981;DHT22;479;53.514;9.994;2023-07-02T14:31:06;21.60;60.50
981;DHT22;479;53.514;9.994;2023-07-02T14:33:36;21.50;60.40
981;DHT22;479;53.514;9.994;2023-07-02T14:36:04;21.20;60.70
981;DHT22;479;53.514;9.994;2023-07-02T14:38:31;21.30;60.70
981;DHT22;479;53.514;9.994;2023-07-02T14:40:58;21.30;61.00
981;DHT22;479;53.514;9.994;2023-07-02T14:43:27;21.30;60.00
981;DHT22;479;53.514;9.994;2023-07-02T14:45:56;21.50;60.40
981;DHT22;479;53.514;9.994;2023-07-02T14:48:23;21.60;59.00
981;DHT22;479;53.514;9.994;2023-07-02T14:50:53;21.40;58.60
981;DHT22;479;53.514;9.994;2023-07-02T14:53:21;21.20;58.80
981;DHT22;479;53.514;9.994;2023-07-02T14:55:48;21.00;58.70
981;DHT22;479;53.514;9.994;2023-07-02T14:58:16;20.90;58.90
981;DHT22;479;53.514;9.994;2023-07-02T15:00:44;20.80;58.50
981;DHT22;479;53.514;9.994;2023-07-02T15:03:15;20.80;59.40
981;DHT22;479;53.514;9.994;2023-07-02T15:05:44;21.00;60.00
981;DHT22;479;53.514;9.994;2023-07-02T15:08:14;21.30;59.60
981;DHT22;479;53.514;9.994;2023-07-02T15:10:45;21.30;59.60
981;DHT22;479;53.514;9.994;2023-07-02T15:13:12;21.20;59.70
981;DHT22;479;53.514;9.994;2023-07-02T15:15:39;21.20;59.10
981;DHT22;479;53.514;9.994;2023-07-02T15:18:07;21.30;58.80
981;DHT22;479;53.514;9.994;2023-07-02T15:20:35;21.50;59.20
981;DHT22;479;53.514;9.994;2023-07-02T15:23:02;21.60;58.70
981;DHT22;479;53.514;9.994;2023-07-02T15:25:31;21.60;58.60
981;DHT22;479;53.514;9.994;2023-07-02T15:27:58;21.50;57.10
981;DHT22;479;53.514;9.994;2023-07-02T15:30:25;21.50;57.00
981;DHT22;479;53.514;9.994;2023-07-02T15:32:52;21.40;57.10
981;DHT22;479;53.514;9.994;2023-07-02T15:35:19;21.30;57.30
981;DHT22;479;53.514;9.994;2023-07-02T15:37:46;21.30;56.90
981;DHT22;479;53.514;9.994;2023-07-02T15:40:13;21.20;56.80
981;DHT22;479;53.514;9.994;2023-07-02T15:42:41;21.00;57.70
981;DHT22;479;53.514;9.994;2023-07-02T15:45:09;20.90;58.70
981;DHT22;479;53.514;9.994;2023-07-02T15:47:36;21.00;58.30
981;DHT22;479;53.514;9.994;2023-07-02T15:50:04;21.00;58.80
981;DHT22;479;53.514;9.994;2023-07-02T15:52:30;20.90;59.20
981;DHT22;479;53.514;9.994;2023-07-02T15:54:57;20.90;59.70
981;DHT22;479;53.514;9.994;2023-07-02T15:57:24;20.80;59.50
981;DHT22;479;53.514;9.994;2023-07-02T15:59:53;20.80;59.80
981;DHT22;479;53.514;9.994;2023-07-02T16:02:20;20.90;59.70
981;DHT22;479;53.514;9.994;2023-07-02T16:04:47;20.90;59.80
981;DHT22;479;53.514;9.994;2023-07-02T16:07:14;20.90;60.10
981;DHT22;479;53.514;9.994;2023-07-02T16:09:41;20.80;61.30
981;DHT22;479;53.514;9.994;2023-07-02T16:12:08;20.70;60.40
981;DHT22;479;53.514;9.994;2023-07-02T16:14:36;20.70;61.00
981;DHT22;479;53.514;9.994;2023-07-02T16:17:05;20.60;60.90
981;DHT22;479;53.514;9.994;2023-07-02T16:19:32;20.60;60.20
981;DHT22;479;53.514;9.994;2023-07-02T16:21:59;20.50;59.90
981;DHT22;479;53.514;9.994;2023-07-02T16:24:29;20.50;60.90
981;DHT22;479;53.514;9.994;2023-07-02T16:26:57;20.50;60.60
981;DHT22;479;53.514;9.994;2023-07-02T16:29:26;20.60;61.30
981;DHT22;479;53.514;9.994;2023-07-02T16:31:55;20.60;61.10
981;DHT22;479;53.514;9.994;2023-07-02T16:34:24;20.80;60.30
981;DHT22;479;53.514;9.994;2023-07-02T16:36:52;20.80;59.70
981;DHT22;479;53.514;9.994;2023-07-02T16:39:20;20.50;59.30